createdAt,value
2018-11-14T00:02:02.635Z,94.04
2018-11-14T00:04:31.913Z,94.14
2018-11-14T00:07:01.010Z,93.73
2018-11-14T00:09:45.308Z,94.22
2018-11-14T00:12:14.369Z,94.04
2018-11-14T00:14:43.628Z,94.42
2018-11-14T00:17:13.389Z,94.55
2018-11-14T00:19:42.684Z,94.50
2018-11-14T00:22:11.954Z,94.45
2018-11-14T00:24:41.552Z,94.55
2018-11-14T00:27:10.998Z,94.94
2018-11-14T00:29:40.938Z,95.16
2018-11-14T00:32:09.774Z,95.00
2018-11-14T00:34:39.049Z,95.68
2018-11-14T00:37:08.550Z,95.37
2018-11-14T00:39:38.033Z,95.16
2018-11-14T00:42:07.582Z,95.83
2018-11-14T00:44:36.863Z,95.83
2018-11-14T00:47:05.799Z,95.33
2018-11-14T00:49:35.070Z,95.64
2018-11-14T00:52:04.047Z,95.44
2018-11-14T00:54:33.891Z,95.50
2018-11-14T00:57:02.833Z,95.95
2018-11-14T00:59:32.114Z,95.99
2018-11-14T01:02:02.781Z,95.95
2018-11-14T01:04:31.999Z,95.92
2018-11-14T01:07:01.609Z,95.78
2018-11-14T01:09:31.346Z,95.94
2018-11-14T01:12:00.761Z,96.23
2018-11-14T01:14:30.215Z,96.44
2018-11-14T01:16:59.331Z,96.28
2018-11-14T01:19:29.521Z,96.42
2018-11-14T01:21:58.957Z,96.03
2018-11-14T01:24:28.227Z,96.12
2018-11-14T01:26:58.045Z,96.60
2018-11-14T01:29:27.758Z,96.59
2018-11-14T01:31:57.033Z,96.29
2018-11-14T01:34:26.354Z,96.60
2018-11-14T01:36:55.679Z,96.53
2018-11-14T01:39:25.234Z,96.59
2018-11-14T01:41:54.789Z,96.39
2018-11-14T01:44:24.070Z,96.79
2018-11-14T01:46:53.360Z,96.94
2018-11-14T01:49:22.679Z,96.81
2018-11-14T01:51:51.966Z,97.08
2018-11-14T01:54:21.810Z,97.26
2018-11-14T01:56:51.074Z,97.17
2018-11-14T01:59:20.646Z,96.94
2018-11-14T02:01:49.927Z,97.03
2018-11-14T02:04:20.246Z,96.87
2018-11-14T02:06:49.806Z,96.98
2018-11-14T02:09:20.264Z,97.23
2018-11-14T02:11:49.537Z,97.11
2018-11-14T02:14:20.090Z,97.37
2018-11-14T02:16:49.355Z,97.45
2018-11-14T02:19:19.638Z,97.55
2018-11-14T02:21:48.966Z,97.86
2018-11-14T02:24:18.222Z,97.63
2018-11-14T02:26:47.485Z,97.80
2018-11-14T02:29:17.058Z,97.87
2018-11-14T02:31:46.534Z,97.95
2018-11-14T02:34:16.058Z,97.72
2018-11-14T02:36:45.437Z,97.98
2018-11-14T02:39:14.698Z,97.88
2018-11-14T02:41:44.179Z,97.91
2018-11-14T02:44:14.189Z,97.80
2018-11-14T02:46:43.173Z,98.19
2018-11-14T02:49:12.910Z,98.09
2018-11-14T02:51:42.190Z,98.45
2018-11-14T02:54:11.457Z,98.67
2018-11-14T02:56:40.741Z,98.43
2018-11-14T02:59:10.197Z,99.11
2018-11-14T03:01:39.474Z,98.90
2018-11-14T03:04:09.317Z,99.39
2018-11-14T03:06:38.591Z,99.15
2018-11-14T03:09:07.625Z,99.34
2018-11-14T03:11:37.210Z,99.54
2018-11-14T03:14:05.694Z,99.75
2018-11-14T03:16:35.262Z,99.83
2018-11-14T03:19:04.058Z,99.86
2018-11-14T03:21:33.614Z,100.00
2018-11-14T03:24:03.182Z,100.00
2018-11-14T03:26:32.422Z,99.98
2018-11-14T03:29:01.981Z,99.66
2018-11-14T03:31:31.749Z,100.00
2018-11-14T03:34:01.001Z,99.82
2018-11-14T03:36:30.141Z,100.00
2018-11-14T03:38:59.422Z,100.00
2018-11-14T03:41:28.697Z,99.84
2018-11-14T03:43:58.137Z,99.99
2018-11-14T03:46:27.430Z,99.74
2018-11-14T03:48:56.701Z,100.00
2018-11-14T03:51:26.137Z,99.80
2018-11-14T03:53:55.401Z,99.64
2018-11-14T03:56:24.682Z,99.69
2018-11-14T03:58:54.246Z,99.46
2018-11-14T04:01:23.533Z,99.68
2018-11-14T04:03:52.799Z,99.73
2018-11-14T04:06:22.451Z,100.00
2018-11-14T04:08:52.202Z,100.00
2018-11-14T04:11:21.615Z,100.00
2018-11-14T04:13:51.602Z,100.00
2018-11-14T04:16:21.170Z,100.00
2018-11-14T04:18:50.437Z,100.00
2018-11-14T04:21:20.572Z,100.00
2018-11-14T04:23:49.610Z,100.00
2018-11-14T04:26:20.242Z,100.00
2018-11-14T04:28:50.490Z,100.00
2018-11-14T04:31:20.654Z,100.00
2018-11-14T04:33:49.971Z,100.00
2018-11-14T04:36:20.642Z,100.00
2018-11-14T04:38:49.918Z,100.00
2018-11-14T04:41:20.658Z,100.00
2018-11-14T04:43:49.943Z,100.00
2018-11-14T04:46:20.682Z,100.00
2018-11-14T04:48:50.308Z,100.00
2018-11-14T04:51:20.758Z,100.00
2018-11-14T04:53:50.321Z,100.00
2018-11-14T04:56:20.798Z,100.00
2018-11-14T04:58:50.337Z,100.00
2018-11-14T05:01:20.786Z,100.00
2018-11-14T05:03:50.360Z,100.00
2018-11-14T05:06:20.775Z,100.00
2018-11-14T05:08:50.042Z,100.00
2018-11-14T05:11:20.913Z,100.00
2018-11-14T05:13:50.545Z,100.00
2018-11-14T05:16:20.743Z,100.00
2018-11-14T05:18:50.319Z,100.00
2018-11-14T05:21:20.765Z,100.00
2018-11-14T05:23:50.045Z,100.00
2018-11-14T05:26:20.441Z,100.00
2018-11-14T05:28:49.725Z,100.00
2018-11-14T05:31:19.005Z,100.00
2018-11-14T05:33:48.426Z,100.00
2018-11-14T05:36:17.750Z,100.00
2018-11-14T05:38:47.016Z,100.00
2018-11-14T05:41:16.565Z,100.00
2018-11-14T05:43:45.849Z,100.00
2018-11-14T05:46:15.419Z,100.00
2018-11-14T05:48:44.893Z,100.00
2018-11-14T05:51:13.942Z,100.00
2018-11-14T05:53:43.225Z,100.00
2018-11-14T05:56:12.933Z,100.00
2018-11-14T05:58:42.266Z,100.00
2018-11-14T06:01:11.539Z,100.00
2018-11-14T06:03:41.007Z,100.00
2018-11-14T06:06:10.358Z,100.00
2018-11-14T06:08:39.693Z,100.00
2018-11-14T06:11:08.962Z,100.00
2018-11-14T06:13:38.195Z,100.00
2018-11-14T06:16:07.558Z,100.00
2018-11-14T06:18:36.830Z,100.00
2018-11-14T06:21:05.782Z,100.00
2018-11-14T06:23:35.114Z,100.00
2018-11-14T06:26:17.199Z,100.00
2018-11-14T06:28:53.998Z,100.00
2018-11-14T06:31:23.566Z,100.00
2018-11-14T06:33:52.527Z,100.00
2018-11-14T06:36:22.098Z,100.00
2018-11-14T06:38:51.957Z,100.00
2018-11-14T06:41:21.479Z,100.00
2018-11-14T06:43:50.741Z,100.00
2018-11-14T06:46:21.005Z,100.00
2018-11-14T06:48:50.665Z,100.00
2018-11-14T06:51:21.034Z,100.00
2018-11-14T06:53:50.297Z,100.00
2018-11-14T06:56:20.794Z,100.00
2018-11-14T06:58:50.152Z,100.00
2018-11-14T07:01:21.149Z,100.00
2018-11-14T07:03:51.006Z,100.00
2018-11-14T07:06:21.034Z,100.00
2018-11-14T07:08:50.309Z,100.00
2018-11-14T07:11:21.171Z,100.00
2018-11-14T07:13:50.757Z,100.00
2018-11-14T07:16:21.098Z,100.00
2018-11-14T07:18:50.702Z,100.00
2018-11-14T07:21:21.249Z,100.00
2018-11-14T07:23:50.890Z,100.00
2018-11-14T07:26:21.190Z,100.00
2018-11-14T07:28:51.439Z,100.00
2018-11-14T07:31:20.847Z,100.00
2018-11-14T07:33:50.387Z,100.00
2018-11-14T07:36:21.144Z,100.00
2018-11-14T07:38:50.947Z,100.00
2018-11-14T07:41:21.046Z,100.00
2018-11-14T07:43:50.306Z,100.00
2018-11-14T07:46:21.170Z,100.00
2018-11-14T07:48:50.793Z,100.00
2018-11-14T07:51:21.166Z,100.00
2018-11-14T07:53:50.991Z,100.00
2018-11-14T07:56:21.169Z,100.00
2018-11-14T07:58:49.880Z,98.57
2018-11-14T08:01:19.008Z,96.70
2018-11-14T08:03:48.274Z,95.32
2018-11-14T08:06:17.627Z,93.94
2018-11-14T08:08:47.013Z,92.30
2018-11-14T08:11:16.045Z,91.07
2018-11-14T08:13:45.319Z,90.08
2018-11-14T08:16:14.991Z,88.82
2018-11-14T08:18:44.254Z,89.01
2018-11-14T08:21:13.672Z,87.99
2018-11-14T08:23:43.169Z,86.31
2018-11-14T08:26:12.440Z,85.49
2018-11-14T08:28:41.649Z,84.97
2018-11-14T08:31:11.197Z,85.08
2018-11-14T08:33:40.205Z,84.52
2018-11-14T08:36:09.481Z,83.65
2018-11-14T08:38:39.417Z,82.11
2018-11-14T08:41:09.043Z,80.01
2018-11-14T08:43:38.312Z,80.84
2018-11-14T08:46:07.929Z,80.40
2018-11-14T08:48:37.197Z,80.10
2018-11-14T08:51:06.686Z,80.47
2018-11-14T08:53:36.306Z,79.70
2018-11-14T08:56:05.285Z,79.99
2018-11-14T08:58:34.343Z,80.10
2018-11-14T09:01:03.605Z,79.46
2018-11-14T09:03:32.868Z,79.17
2018-11-14T09:06:02.477Z,78.13
2018-11-14T09:08:32.230Z,78.29
2018-11-14T09:11:01.532Z,77.78
2018-11-14T09:13:31.179Z,77.98
2018-11-14T09:16:00.402Z,77.48
2018-11-14T09:18:29.398Z,76.96
2018-11-14T09:20:59.101Z,75.63
2018-11-14T09:23:28.157Z,75.19
2018-11-14T09:25:57.422Z,73.55
2018-11-14T09:28:27.530Z,72.27
2018-11-14T09:30:57.049Z,72.28
2018-11-14T09:33:26.602Z,71.34
2018-11-14T09:35:56.165Z,71.86
2018-11-14T09:38:25.434Z,71.61
2018-11-14T09:40:55.020Z,72.14
2018-11-14T09:43:24.466Z,71.59
2018-11-14T09:45:54.051Z,71.71
2018-11-14T09:48:23.319Z,71.01
2018-11-14T09:50:53.082Z,70.85
2018-11-14T09:53:22.475Z,70.37
2018-11-14T09:55:51.890Z,71.02
2018-11-14T09:58:21.510Z,71.60
2018-11-14T10:00:50.810Z,70.44
2018-11-14T10:03:21.398Z,70.42
2018-11-14T10:05:51.440Z,69.87
2018-11-14T10:08:21.492Z,69.87
2018-11-14T10:10:51.056Z,69.25
2018-11-14T10:13:21.448Z,68.14
2018-11-14T10:15:50.460Z,68.23
2018-11-14T10:18:21.404Z,67.83
2018-11-14T10:20:51.182Z,67.24
2018-11-14T10:23:21.594Z,67.39
2018-11-14T10:25:50.851Z,67.51
2018-11-14T10:28:21.475Z,67.04
2018-11-14T10:30:54.120Z,66.61
2018-11-14T10:33:23.258Z,65.65
2018-11-14T10:35:52.534Z,64.76
2018-11-14T10:38:21.802Z,63.89
2018-11-14T10:40:51.374Z,64.70
2018-11-14T10:43:21.533Z,64.10
2018-11-14T10:45:51.346Z,65.18
2018-11-14T10:48:21.498Z,64.11
2018-11-14T10:50:50.827Z,64.54
2018-11-14T10:53:21.963Z,64.96
2018-11-14T10:55:51.286Z,65.02
2018-11-14T10:58:21.165Z,65.67
2018-11-14T11:00:50.722Z,65.58
2018-11-14T11:03:20.918Z,65.36
2018-11-14T11:05:50.094Z,65.14
2018-11-14T11:08:23.197Z,65.26
2018-11-14T11:10:52.605Z,65.17
2018-11-14T11:13:21.933Z,64.39
2018-11-14T11:15:50.874Z,64.45
2018-11-14T11:18:19.543Z,63.96
2018-11-14T11:20:49.569Z,64.67
2018-11-14T11:23:18.828Z,63.60
2018-11-14T11:25:49.198Z,64.44
2018-11-14T11:28:18.235Z,65.17
2018-11-14T11:30:47.573Z,64.91
2018-11-14T11:33:16.640Z,63.66
2018-11-14T11:35:45.565Z,64.65
2018-11-14T11:38:14.591Z,62.88
2018-11-14T11:40:43.991Z,62.83
2018-11-14T11:43:13.461Z,63.65
2018-11-14T11:45:42.723Z,63.21
2018-11-14T11:48:11.138Z,62.41
2018-11-14T11:50:40.445Z,62.64
2018-11-14T11:53:10.698Z,61.62
2018-11-14T11:55:39.972Z,60.91
2018-11-14T11:58:09.415Z,59.71
2018-11-14T12:00:38.899Z,60.20
2018-11-14T12:03:08.495Z,59.92
2018-11-14T12:05:37.823Z,58.97
2018-11-14T12:08:06.962Z,58.67
2018-11-14T12:10:36.624Z,58.55
2018-11-14T12:13:06.130Z,56.66
2018-11-14T12:15:35.850Z,56.51
2018-11-14T12:18:05.003Z,57.42
2018-11-14T12:20:34.454Z,58.59
2018-11-14T12:23:03.710Z,58.28
2018-11-14T12:25:33.003Z,58.32
2018-11-14T12:28:02.461Z,58.20
2018-11-14T12:30:31.749Z,57.74
2018-11-14T12:33:01.722Z,57.28
2018-11-14T12:35:31.048Z,57.17
2018-11-14T12:38:00.482Z,55.65
2018-11-14T12:40:29.758Z,56.87
2018-11-14T12:42:59.017Z,57.74
2018-11-14T12:45:28.369Z,58.50
2018-11-14T12:47:57.644Z,57.22
2018-11-14T12:50:26.917Z,58.21
2018-11-14T12:52:56.488Z,58.68
2018-11-14T12:55:25.773Z,57.95
2018-11-14T12:57:55.337Z,58.14
2018-11-14T13:00:25.042Z,58.26
2018-11-14T13:02:54.590Z,59.29
2018-11-14T13:05:24.067Z,58.76
2018-11-14T13:07:53.261Z,57.99
2018-11-14T13:10:22.812Z,57.35
2018-11-14T13:12:52.374Z,57.47
2018-11-14T13:15:22.082Z,57.14
2018-11-14T13:17:59.863Z,57.62
2018-11-14T13:20:29.128Z,58.30
2018-11-14T13:22:58.721Z,56.07
2018-11-14T13:25:28.002Z,56.30
2018-11-14T13:27:57.544Z,57.10
2018-11-14T13:30:27.005Z,57.09
2018-11-14T13:32:56.701Z,58.17
2018-11-14T13:35:25.967Z,58.09
2018-11-14T13:37:55.531Z,56.90
2018-11-14T13:40:24.850Z,57.05
2018-11-14T13:42:54.126Z,55.93
2018-11-14T13:45:23.691Z,57.16
2018-11-14T13:47:52.962Z,57.80
2018-11-14T13:50:22.404Z,59.19
2018-11-14T13:52:51.750Z,59.49
2018-11-14T13:55:21.908Z,59.40
2018-11-14T13:57:51.171Z,59.24
2018-11-14T14:00:21.582Z,59.07
2018-11-14T14:02:50.633Z,59.42
2018-11-14T14:05:20.086Z,59.60
2018-11-14T14:07:49.642Z,58.95
2018-11-14T14:10:18.350Z,59.74
2018-11-14T14:12:47.478Z,59.49
2018-11-14T14:15:16.582Z,59.50
2018-11-14T14:17:45.813Z,60.15
2018-11-14T14:20:15.095Z,59.99
2018-11-14T14:22:44.282Z,60.34
2018-11-14T14:25:13.930Z,59.86
2018-11-14T14:27:43.190Z,59.43
2018-11-14T14:30:12.170Z,60.07
2018-11-14T14:32:41.823Z,60.36
2018-11-14T14:35:11.046Z,59.85
2018-11-14T14:37:40.303Z,59.75
2018-11-14T14:40:09.197Z,59.88
2018-11-14T14:42:39.249Z,60.30
2018-11-14T14:45:08.289Z,60.86
2018-11-14T14:47:38.198Z,60.99
2018-11-14T14:50:06.910Z,61.80
2018-11-14T14:52:36.717Z,61.83
2018-11-14T14:55:05.448Z,62.34
2018-11-14T14:57:35.555Z,62.41
2018-11-14T15:00:05.482Z,63.03
2018-11-14T15:02:35.054Z,63.69
2018-11-14T15:05:04.430Z,63.61
2018-11-14T15:07:34.299Z,64.07
2018-11-14T15:10:03.222Z,63.51
2018-11-14T15:12:32.151Z,64.00
2018-11-14T15:15:01.197Z,64.21
2018-11-14T15:17:30.232Z,64.40
2018-11-14T15:19:59.790Z,64.35
2018-11-14T15:22:29.568Z,64.92
2018-11-14T15:24:59.105Z,64.53
2018-11-14T15:27:28.379Z,65.32
2018-11-14T15:29:58.151Z,65.33
2018-11-14T15:32:40.159Z,65.60
2018-11-14T15:35:20.994Z,65.87
2018-11-14T15:38:02.706Z,65.89
2018-11-14T15:40:44.381Z,66.28
2018-11-14T15:43:23.665Z,67.24
2018-11-14T15:45:52.999Z,67.05
2018-11-14T15:48:22.382Z,67.53
2018-11-14T15:50:51.641Z,68.80
2018-11-14T15:53:22.262Z,69.28
2018-11-14T15:55:51.514Z,69.53
2018-11-14T15:58:22.179Z,69.79
2018-11-14T16:00:51.129Z,70.49
2018-11-14T16:03:20.442Z,70.04
2018-11-14T16:05:49.772Z,70.64
2018-11-14T16:08:19.279Z,70.66
2018-11-14T16:10:48.307Z,71.00
2018-11-14T16:13:17.581Z,70.85
2018-11-14T16:15:46.806Z,71.36
2018-11-14T16:18:16.095Z,71.52
2018-11-14T16:20:45.650Z,71.37
2018-11-14T16:23:15.211Z,72.00
2018-11-14T16:25:44.465Z,71.37
2018-11-14T16:28:13.753Z,71.89
2018-11-14T16:30:43.225Z,71.97
2018-11-14T16:33:12.684Z,72.22
2018-11-14T16:35:41.966Z,71.79
2018-11-14T16:38:11.310Z,72.50
2018-11-14T16:40:40.843Z,73.00
2018-11-14T16:43:10.365Z,73.14
2018-11-14T16:45:39.499Z,73.31
2018-11-14T16:48:08.778Z,72.83
2018-11-14T16:50:38.335Z,73.33
2018-11-14T16:53:07.614Z,73.13
2018-11-14T16:55:37.759Z,73.03
2018-11-14T16:58:06.738Z,73.79
2018-11-14T17:00:36.015Z,73.97
2018-11-14T17:03:04.955Z,74.70
2018-11-14T17:05:34.975Z,74.82
2018-11-14T17:08:04.736Z,74.99
2018-11-14T17:10:34.315Z,75.10
2018-11-14T17:13:03.595Z,75.07
2018-11-14T17:15:32.862Z,75.50
2018-11-14T17:18:02.426Z,75.61
2018-11-14T17:20:31.369Z,75.81
2018-11-14T17:23:00.645Z,76.45
2018-11-14T17:25:29.980Z,76.86
2018-11-14T17:27:59.429Z,77.50
2018-11-14T17:30:28.717Z,77.47
2018-11-14T17:32:58.349Z,77.44
2018-11-14T17:35:27.755Z,77.86
2018-11-14T17:37:58.006Z,78.50
2018-11-14T17:40:27.222Z,78.46
2018-11-14T17:42:56.605Z,79.10
2018-11-14T17:45:25.898Z,78.92
2018-11-14T17:47:55.452Z,79.18
2018-11-14T17:50:24.518Z,79.07
2018-11-14T17:52:53.555Z,79.19
2018-11-14T17:55:22.896Z,79.60
2018-11-14T17:57:52.602Z,79.27
2018-11-14T18:00:22.862Z,80.10
2018-11-14T18:02:52.185Z,79.62
2018-11-14T18:05:22.602Z,80.16
2018-11-14T18:07:51.657Z,80.18
2018-11-14T18:10:20.603Z,80.41
2018-11-14T18:12:50.046Z,80.44
2018-11-14T18:15:19.950Z,81.31
2018-11-14T18:17:49.502Z,80.89
2018-11-14T18:20:18.538Z,81.26
2018-11-14T18:22:48.290Z,81.74
2018-11-14T18:25:17.312Z,82.46
2018-11-14T18:27:46.591Z,82.80
2018-11-14T18:30:15.303Z,82.36
2018-11-14T18:32:44.817Z,82.45
2018-11-14T18:35:14.416Z,82.05
2018-11-14T18:37:43.364Z,82.69
2018-11-14T18:40:12.699Z,82.48
2018-11-14T18:42:41.732Z,82.77
2018-11-14T18:45:10.677Z,82.90
2018-11-14T18:47:39.996Z,83.33
2018-11-14T18:50:09.022Z,83.21
2018-11-14T18:52:38.622Z,83.51
2018-11-14T18:55:07.556Z,83.86
2018-11-14T18:57:37.121Z,83.92
2018-11-14T19:00:07.011Z,84.10
2018-11-14T19:02:37.965Z,84.12
2018-11-14T19:05:07.466Z,84.48
2018-11-14T19:07:36.881Z,84.60
2018-11-14T19:10:05.582Z,85.23
2018-11-14T19:12:35.079Z,85.06
2018-11-14T19:15:04.083Z,85.65
2018-11-14T19:17:33.773Z,85.58
2018-11-14T19:20:03.450Z,85.78
2018-11-14T19:22:33.069Z,86.12
2018-11-14T19:25:02.403Z,86.28
2018-11-14T19:27:31.971Z,86.03
2018-11-14T19:30:01.809Z,86.66
2018-11-14T19:32:30.791Z,86.56
2018-11-14T19:35:00.198Z,86.29
2018-11-14T19:37:29.991Z,85.87
2018-11-14T19:40:00.178Z,85.87
2018-11-14T19:42:29.779Z,85.23
2018-11-14T19:44:59.269Z,85.78
2018-11-14T19:47:28.880Z,86.06
2018-11-14T19:49:58.171Z,86.69
2018-11-14T19:52:27.744Z,87.15
2018-11-14T19:54:57.031Z,86.94
2018-11-14T19:57:26.583Z,86.99
2018-11-14T19:59:56.038Z,87.08
2018-11-14T20:02:25.435Z,87.07
2018-11-14T20:05:02.482Z,86.96
2018-11-14T20:07:33.237Z,86.87
2018-11-14T20:10:02.794Z,87.06
2018-11-14T20:12:32.120Z,86.67
2018-11-14T20:15:01.713Z,87.20
2018-11-14T20:17:31.127Z,87.31
2018-11-14T20:20:00.705Z,86.96
2018-11-14T20:22:30.835Z,87.30
2018-11-14T20:25:00.091Z,87.44
2018-11-14T20:27:29.399Z,87.37
2018-11-14T20:29:59.037Z,87.27
2018-11-14T20:32:28.316Z,87.33
2018-11-14T20:34:57.874Z,87.40
2018-11-14T20:37:27.293Z,87.02
2018-11-14T20:39:56.915Z,87.75
2018-11-14T20:42:26.169Z,87.42
2018-11-14T20:44:55.469Z,87.32
2018-11-14T20:47:25.026Z,87.57
2018-11-14T20:49:54.993Z,87.99
2018-11-14T20:52:24.287Z,87.67
2018-11-14T20:54:53.881Z,87.69
2018-11-14T20:57:23.330Z,87.66
2018-11-14T20:59:52.909Z,87.39
2018-11-14T21:02:23.360Z,87.46
2018-11-14T21:04:52.997Z,87.45
2018-11-14T21:07:23.351Z,87.44
2018-11-14T21:09:52.747Z,87.76
2018-11-14T21:12:23.362Z,87.96
2018-11-14T21:14:53.954Z,88.24
2018-11-14T21:17:23.390Z,88.07
2018-11-14T21:19:52.954Z,88.31
2018-11-14T21:22:23.314Z,88.32
2018-11-14T21:24:52.888Z,88.19
2018-11-14T21:27:23.390Z,88.37
2018-11-14T21:29:52.670Z,88.55
2018-11-14T21:32:23.360Z,88.76
2018-11-14T21:34:52.934Z,89.44
2018-11-14T21:37:23.466Z,89.52
2018-11-14T21:40:04.746Z,89.27
2018-11-14T21:42:44.258Z,89.75
2018-11-14T21:45:13.531Z,89.05
2018-11-14T21:47:42.890Z,89.36
2018-11-14T21:50:12.400Z,88.81
2018-11-14T21:52:42.059Z,88.61
2018-11-14T21:55:10.756Z,89.03
2018-11-14T21:57:39.789Z,88.84
2018-11-14T22:00:09.038Z,88.52
2018-11-14T22:02:38.403Z,88.62
2018-11-14T22:05:07.634Z,89.01
2018-11-14T22:07:36.976Z,88.96
2018-11-14T22:10:05.686Z,88.75
2018-11-14T22:12:35.251Z,89.20
2018-11-14T22:15:04.192Z,89.41
2018-11-14T22:17:33.411Z,89.28
2018-11-14T22:20:02.658Z,89.09
2018-11-14T22:22:32.229Z,88.32
2018-11-14T22:25:01.495Z,89.17
2018-11-14T22:27:31.682Z,88.67
2018-11-14T22:30:01.806Z,88.68
2018-11-14T22:32:31.373Z,88.94
2018-11-14T22:35:00.805Z,89.06
2018-11-14T22:37:30.741Z,89.13
2018-11-14T22:40:00.299Z,89.24
2018-11-14T22:42:30.148Z,89.04
2018-11-14T22:44:59.482Z,89.54
2018-11-14T22:47:28.754Z,89.27
2018-11-14T22:49:58.374Z,89.72
2018-11-14T22:52:27.698Z,89.35
2018-11-14T22:54:57.266Z,89.70
2018-11-14T22:57:26.842Z,89.54
2018-11-14T22:59:56.591Z,89.60
2018-11-14T23:02:25.865Z,89.33
2018-11-14T23:04:55.470Z,89.16
2018-11-14T23:07:24.774Z,89.35
2018-11-14T23:09:54.401Z,89.40
2018-11-14T23:12:23.989Z,89.56
2018-11-14T23:14:53.594Z,89.15
2018-11-14T23:17:23.902Z,89.08
2018-11-14T23:19:53.778Z,89.22
2018-11-14T23:22:23.922Z,89.64
2018-11-14T23:24:53.786Z,89.46
2018-11-14T23:27:23.575Z,89.28
2018-11-14T23:29:52.599Z,89.11
2018-11-14T23:32:21.882Z,88.86
2018-11-14T23:34:51.208Z,89.59
2018-11-14T23:37:20.910Z,89.80
2018-11-14T23:39:51.034Z,89.81
2018-11-14T23:42:20.590Z,89.96
2018-11-14T23:44:49.858Z,90.14
2018-11-14T23:47:19.425Z,90.14
2018-11-14T23:49:48.694Z,90.10
2018-11-14T23:52:17.978Z,90.04
2018-11-14T23:54:47.502Z,90.18
2018-11-14T23:57:16.772Z,89.96
2018-11-14T23:59:46.251Z,89.83
